sensor_id;sensor_type;location;lat;lon;timestamp;temperature;humidity
6986;DHT22;3533;51.246;6.850;2023-09-08T00:01:15;24.30;50.20
6986;DHT22;3533;51.246;6.850;2023-09-08T00:03:41;24.30;50.30
6986;DHT22;3533;51.246;6.850;2023-09-08T00:06:06;24.30;50.30
6986;DHT22;3533;51.246;6.850;2023-09-08T00:08:32;24.30;50.30
6986;DHT22;3533;51.246;6.850;2023-09-08T00:10:58;24.30;50.30
6986;DHT22;3533;51.246;6.850;2023-09-08T00:13:23;24.30;50.30
6986;DHT22;3533;51.246;6.850;2023-09-08T00:15:49;24.30;50.30
6986;DHT22;3533;51.246;6.850;2023-09-08T00:18:14;24.30;50.20
6986;DHT22;3533;51.246;6.850;2023-09-08T00:20:40;24.30;50.30
6986;DHT22;3533;51.246;6.850;2023-09-08T00:23:07;24.30;50.30
6986;DHT22;3533;51.246;6.850;2023-09-08T00:25:33;24.30;50.50
6986;DHT22;3533;51.246;6.850;2023-09-08T00:28:00;24.30;50.30
6986;DHT22;3533;51.246;6.850;2023-09-08T00:30:25;24.30;50.30
6986;DHT22;3533;51.246;6.850;2023-09-08T00:32:51;24.30;50.30
6986;DHT22;3533;51.246;6.850;2023-09-08T00:35:16;24.30;50.30
6986;DHT22;3533;51.246;6.850;2023-09-08T00:37:42;24.30;50.30
6986;DHT22;3533;51.246;6.850;2023-09-08T00:40:08;24.30;50.30
6986;DHT22;3533;51.246;6.850;2023-09-08T00:42:34;24.30;50.40
6986;DHT22;3533;51.246;6.850;2023-09-08T00:44:59;24.30;50.30
6986;DHT22;3533;51.246;6.850;2023-09-08T00:47:25;24.30;50.30
6986;DHT22;3533;51.246;6.850;2023-09-08T00:49:50;24.30;50.30
6986;DHT22;3533;51.246;6.850;2023-09-08T00:52:17;24.30;50.30
6986;DHT22;3533;51.246;6.850;2023-09-08T00:54:42;24.30;50.30
6986;DHT22;3533;51.246;6.850;2023-09-08T00:57:09;24.30;50.30
6986;DHT22;3533;51.246;6.850;2023-09-08T00:59:35;24.30;50.30
6986;DHT22;3533;51.246;6.850;2023-09-08T01:02:01;24.30;51.10
6986;DHT22;3533;51.246;6.850;2023-09-08T01:04:28;24.30;50.30
6986;DHT22;3533;51.246;6.850;2023-09-08T01:06:55;24.30;50.30
6986;DHT22;3533;51.246;6.850;2023-09-08T01:09:21;24.30;50.30
6986;DHT22;3533;51.246;6.850;2023-09-08T01:11:47;24.30;50.30
6986;DHT22;3533;51.246;6.850;2023-09-08T01:14:13;24.30;50.30
6986;DHT22;3533;51.246;6.850;2023-09-08T01:16:39;24.30;50.30
6986;DHT22;3533;51.246;6.850;2023-09-08T01:19:09;24.30;50.30
6986;DHT22;3533;51.246;6.850;2023-09-08T01:25:04;24.30;50.30
6986;DHT22;3533;51.246;6.850;2023-09-08T01:27:35;24.30;50.30
6986;DHT22;3533;51.246;6.850;2023-09-08T01:30:04;24.30;50.30
6986;DHT22;3533;51.246;6.850;2023-09-08T01:32:30;24.30;50.30
6986;DHT22;3533;51.246;6.850;2023-09-08T01:34:58;24.30;50.30
6986;DHT22;3533;51.246;6.850;2023-09-08T01:37:25;24.30;50.30
6986;DHT22;3533;51.246;6.850;2023-09-08T01:39:50;24.30;51.10
6986;DHT22;3533;51.246;6.850;2023-09-08T01:42:16;24.30;50.30
6986;DHT22;3533;51.246;6.850;2023-09-08T01:44:41;24.30;50.30
6986;DHT22;3533;51.246;6.850;2023-09-08T01:47:07;24.30;50.30
6986;DHT22;3533;51.246;6.850;2023-09-08T01:49:33;24.30;50.30
6986;DHT22;3533;51.246;6.850;2023-09-08T01:51:58;24.30;50.30
6986;DHT22;3533;51.246;6.850;2023-09-08T01:54:24;24.30;50.30
6986;DHT22;3533;51.246;6.850;2023-09-08T01:56:49;24.30;50.30
6986;DHT22;3533;51.246;6.850;2023-09-08T01:59:16;24.30;50.30
6986;DHT22;3533;51.246;6.850;2023-09-08T02:01:42;24.30;50.30
6986;DHT22;3533;51.246;6.850;2023-09-08T02:04:08;24.30;50.40
6986;DHT22;3533;51.246;6.850;2023-09-08T02:06:33;24.30;50.40
6986;DHT22;3533;51.246;6.850;2023-09-08T02:08:59;24.30;50.50
6986;DHT22;3533;51.246;6.850;2023-09-08T02:11:24;24.30;50.30
6986;DHT22;3533;51.246;6.850;2023-09-08T02:13:50;24.30;50.40
6986;DHT22;3533;51.246;6.850;2023-09-08T02:16:16;24.30;50.40
6986;DHT22;3533;51.246;6.850;2023-09-08T02:18:43;24.30;50.30
6986;DHT22;3533;51.246;6.850;2023-09-08T02:21:08;24.30;50.40
6986;DHT22;3533;51.246;6.850;2023-09-08T02:23:34;24.30;50.40
6986;DHT22;3533;51.246;6.850;2023-09-08T02:25:59;24.30;50.40
6986;DHT22;3533;51.246;6.850;2023-09-08T02:28:25;24.20;50.30
6986;DHT22;3533;51.246;6.850;2023-09-08T02:30:50;24.30;50.50
6986;DHT22;3533;51.246;6.850;2023-09-08T02:33:16;24.30;50.40
6986;DHT22;3533;51.246;6.850;2023-09-08T02:35:42;24.20;50.40
6986;DHT22;3533;51.246;6.850;2023-09-08T02:38:07;24.30;50.40
6986;DHT22;3533;51.246;6.850;2023-09-08T02:40:33;24.30;50.50
6986;DHT22;3533;51.246;6.850;2023-09-08T02:43:02;24.30;50.40
6986;DHT22;3533;51.246;6.850;2023-09-08T02:45:28;24.30;50.40
6986;DHT22;3533;51.246;6.850;2023-09-08T02:47:54;24.30;50.40
6986;DHT22;3533;51.246;6.850;2023-09-08T02:50:20;24.30;50.30
6986;DHT22;3533;51.246;6.850;2023-09-08T02:52:46;24.20;50.30
6986;DHT22;3533;51.246;6.850;2023-09-08T02:55:11;24.30;50.40
6986;DHT22;3533;51.246;6.850;2023-09-08T02:57:38;24.20;50.40
6986;DHT22;3533;51.246;6.850;2023-09-08T03:00:05;24.30;50.40
6986;DHT22;3533;51.246;6.850;2023-09-08T03:02:30;24.30;50.40
6986;DHT22;3533;51.246;6.850;2023-09-08T03:04:56;24.30;50.40
6986;DHT22;3533;51.246;6.850;2023-09-08T03:07:22;24.30;50.40
6986;DHT22;3533;51.246;6.850;2023-09-08T03:09:47;24.30;50.50
6986;DHT22;3533;51.246;6.850;2023-09-08T03:12:13;24.30;50.30
6986;DHT22;3533;51.246;6.850;2023-09-08T03:14:39;24.20;50.40
6986;DHT22;3533;51.246;6.850;2023-09-08T03:17:04;24.20;50.30
6986;DHT22;3533;51.246;6.850;2023-09-08T03:19:30;24.30;50.40
6986;DHT22;3533;51.246;6.850;2023-09-08T03:21:56;24.20;50.30
6986;DHT22;3533;51.246;6.850;2023-09-08T03:24:21;24.20;50.40
6986;DHT22;3533;51.246;6.850;2023-09-08T03:26:47;24.30;51.10
6986;DHT22;3533;51.246;6.850;2023-09-08T03:29:12;24.20;50.30
6986;DHT22;3533;51.246;6.850;2023-09-08T03:31:38;24.20;50.30
6986;DHT22;3533;51.246;6.850;2023-09-08T03:34:04;24.20;50.30
6986;DHT22;3533;51.246;6.850;2023-09-08T03:36:30;24.20;51.10
6986;DHT22;3533;51.246;6.850;2023-09-08T03:38:56;24.20;50.30
6986;DHT22;3533;51.246;6.850;2023-09-08T03:41:23;24.30;50.40
6986;DHT22;3533;51.246;6.850;2023-09-08T03:43:49;24.20;50.30
6986;DHT22;3533;51.246;6.850;2023-09-08T03:46:14;24.20;50.30
6986;DHT22;3533;51.246;6.850;2023-09-08T03:48:40;24.20;50.30
6986;DHT22;3533;51.246;6.850;2023-09-08T03:51:05;24.20;50.30
6986;DHT22;3533;51.246;6.850;2023-09-08T03:53:31;24.20;50.30
6986;DHT22;3533;51.246;6.850;2023-09-08T03:55:57;24.30;50.40
6986;DHT22;3533;51.246;6.850;2023-09-08T03:58:22;24.20;50.30
6986;DHT22;3533;51.246;6.850;2023-09-08T04:00:48;24.20;50.30
6986;DHT22;3533;51.246;6.850;2023-09-08T04:03:13;24.20;50.30
6986;DHT22;3533;51.246;6.850;2023-09-08T04:05:39;24.20;50.30
6986;DHT22;3533;51.246;6.850;2023-09-08T04:08:05;24.30;50.40
6986;DHT22;3533;51.246;6.850;2023-09-08T04:10:30;24.20;50.30
6986;DHT22;3533;51.246;6.850;2023-09-08T04:12:56;24.20;50.40
6986;DHT22;3533;51.246;6.850;2023-09-08T04:15:22;24.30;50.30
6986;DHT22;3533;51.246;6.850;2023-09-08T04:17:48;24.30;50.30
6986;DHT22;3533;51.246;6.850;2023-09-08T04:20:13;24.30;50.20
6986;DHT22;3533;51.246;6.850;2023-09-08T04:22:42;24.30;50.20
6986;DHT22;3533;51.246;6.850;2023-09-08T04:25:07;24.30;50.20
6986;DHT22;3533;51.246;6.850;2023-09-08T04:27:33;24.30;50.20
6986;DHT22;3533;51.246;6.850;2023-09-08T04:30:00;24.30;50.10
6986;DHT22;3533;51.246;6.850;2023-09-08T04:32:26;24.30;50.10
6986;DHT22;3533;51.246;6.850;2023-09-08T04:34:51;24.30;50.10
6986;DHT22;3533;51.246;6.850;2023-09-08T04:37:17;24.30;50.20
6986;DHT22;3533;51.246;6.850;2023-09-08T04:39:42;24.30;50.10
6986;DHT22;3533;51.246;6.850;2023-09-08T04:42:09;24.40;50.20
6986;DHT22;3533;51.246;6.850;2023-09-08T04:44:34;24.30;50.10
6986;DHT22;3533;51.246;6.850;2023-09-08T04:47:00;24.40;50.20
6986;DHT22;3533;51.246;6.850;2023-09-08T04:49:26;24.30;50.00
6986;DHT22;3533;51.246;6.850;2023-09-08T04:51:53;24.40;50.20
6986;DHT22;3533;51.246;6.850;2023-09-08T04:54:19;24.40;50.20
6986;DHT22;3533;51.246;6.850;2023-09-08T04:56:45;24.40;50.10
6986;DHT22;3533;51.246;6.850;2023-09-08T04:59:10;24.40;50.10
6986;DHT22;3533;51.246;6.850;2023-09-08T05:01:36;24.40;50.10
6986;DHT22;3533;51.246;6.850;2023-09-08T05:04:03;24.40;50.10
6986;DHT22;3533;51.246;6.850;2023-09-08T05:06:29;24.40;50.10
6986;DHT22;3533;51.246;6.850;2023-09-08T05:08:55;24.40;50.00
6986;DHT22;3533;51.246;6.850;2023-09-08T05:11:20;24.40;50.00
6986;DHT22;3533;51.246;6.850;2023-09-08T05:13:46;24.40;49.90
6986;DHT22;3533;51.246;6.850;2023-09-08T05:16:12;24.40;49.90
6986;DHT22;3533;51.246;6.850;2023-09-08T05:18:40;24.40;49.80
6986;DHT22;3533;51.246;6.850;2023-09-08T05:21:07;24.40;49.80
6986;DHT22;3533;51.246;6.850;2023-09-08T05:23:33;24.40;49.70
6986;DHT22;3533;51.246;6.850;2023-09-08T05:25:59;24.40;49.60
6986;DHT22;3533;51.246;6.850;2023-09-08T05:28:25;24.40;49.60
6986;DHT22;3533;51.246;6.850;2023-09-08T05:30:53;24.40;49.50
6986;DHT22;3533;51.246;6.850;2023-09-08T05:33:19;24.40;49.50
6986;DHT22;3533;51.246;6.850;2023-09-08T05:35:45;24.40;49.50
6986;DHT22;3533;51.246;6.850;2023-09-08T05:38:11;24.40;49.50
6986;DHT22;3533;51.246;6.850;2023-09-08T05:40:37;24.40;49.50
6986;DHT22;3533;51.246;6.850;2023-09-08T05:43:03;24.40;49.50
6986;DHT22;3533;51.246;6.850;2023-09-08T05:45:31;24.40;49.60
6986;DHT22;3533;51.246;6.850;2023-09-08T05:47:56;24.40;49.50
6986;DHT22;3533;51.246;6.850;2023-09-08T05:50:22;24.40;49.60
6986;DHT22;3533;51.246;6.850;2023-09-08T05:52:48;24.40;49.60
6986;DHT22;3533;51.246;6.850;2023-09-08T05:55:13;24.40;49.60
6986;DHT22;3533;51.246;6.850;2023-09-08T05:57:39;24.40;49.60
6986;DHT22;3533;51.246;6.850;2023-09-08T06:00:06;24.40;49.60
6986;DHT22;3533;51.246;6.850;2023-09-08T06:02:32;24.40;49.60
6986;DHT22;3533;51.246;6.850;2023-09-08T06:04:58;24.40;49.60
6986;DHT22;3533;51.246;6.850;2023-09-08T06:07:23;24.40;49.70
6986;DHT22;3533;51.246;6.850;2023-09-08T06:09:49;24.40;49.60
6986;DHT22;3533;51.246;6.850;2023-09-08T06:12:14;24.40;49.60
6986;DHT22;3533;51.246;6.850;2023-09-08T06:14:40;24.40;49.70
6986;DHT22;3533;51.246;6.850;2023-09-08T06:17:05;24.40;49.70
6986;DHT22;3533;51.246;6.850;2023-09-08T06:19:31;24.40;49.70
6986;DHT22;3533;51.246;6.850;2023-09-08T06:21:56;24.40;49.70
6986;DHT22;3533;51.246;6.850;2023-09-08T06:24:22;24.40;49.60
6986;DHT22;3533;51.246;6.850;2023-09-08T06:26:47;24.40;49.70
6986;DHT22;3533;51.246;6.850;2023-09-08T06:29:15;24.40;49.70
6986;DHT22;3533;51.246;6.850;2023-09-08T06:31:40;24.40;49.70
6986;DHT22;3533;51.246;6.850;2023-09-08T06:34:06;24.40;49.70
6986;DHT22;3533;51.246;6.850;2023-09-08T06:36:31;24.40;49.60
6986;DHT22;3533;51.246;6.850;2023-09-08T06:38:57;24.40;49.80
6986;DHT22;3533;51.246;6.850;2023-09-08T06:41:22;24.40;49.70
6986;DHT22;3533;51.246;6.850;2023-09-08T06:43:49;24.40;49.60
6986;DHT22;3533;51.246;6.850;2023-09-08T06:46:14;24.40;49.60
6986;DHT22;3533;51.246;6.850;2023-09-08T06:48:40;24.40;49.60
6986;DHT22;3533;51.246;6.850;2023-09-08T06:51:06;24.40;49.60
6986;DHT22;3533;51.246;6.850;2023-09-08T06:53:31;24.40;49.60
6986;DHT22;3533;51.246;6.850;2023-09-08T06:55:57;24.40;49.60
6986;DHT22;3533;51.246;6.850;2023-09-08T06:58:23;24.40;49.60
6986;DHT22;3533;51.246;6.850;2023-09-08T07:00:49;24.40;49.60
6986;DHT22;3533;51.246;6.850;2023-09-08T07:03:15;24.40;49.60
6986;DHT22;3533;51.246;6.850;2023-09-08T07:05:41;24.40;49.60
6986;DHT22;3533;51.246;6.850;2023-09-08T07:08:07;24.40;49.60
6986;DHT22;3533;51.246;6.850;2023-09-08T07:10:32;24.40;49.60
6986;DHT22;3533;51.246;6.850;2023-09-08T07:12:58;24.40;49.50
6986;DHT22;3533;51.246;6.850;2023-09-08T07:15:23;24.40;49.50
6986;DHT22;3533;51.246;6.850;2023-09-08T07:17:49;24.40;49.60
6986;DHT22;3533;51.246;6.850;2023-09-08T07:20:15;24.40;49.50
6986;DHT22;3533;51.246;6.850;2023-09-08T07:22:40;24.40;49.60
6986;DHT22;3533;51.246;6.850;2023-09-08T07:25:06;24.40;49.60
6986;DHT22;3533;51.246;6.850;2023-09-08T07:27:32;24.40;49.50
6986;DHT22;3533;51.246;6.850;2023-09-08T07:29:58;24.40;49.50
6986;DHT22;3533;51.246;6.850;2023-09-08T07:32:23;24.40;49.50
6986;DHT22;3533;51.246;6.850;2023-09-08T07:34:50;24.40;49.50
6986;DHT22;3533;51.246;6.850;2023-09-08T07:37:23;24.50;49.50
6986;DHT22;3533;51.246;6.850;2023-09-08T07:39:50;24.50;49.50
6986;DHT22;3533;51.246;6.850;2023-09-08T07:42:15;24.50;49.50
6986;DHT22;3533;51.246;6.850;2023-09-08T07:44:41;24.50;49.50
6986;DHT22;3533;51.246;6.850;2023-09-08T07:47:06;24.50;49.50
6986;DHT22;3533;51.246;6.850;2023-09-08T07:49:36;24.50;49.50
6986;DHT22;3533;51.246;6.850;2023-09-08T07:52:02;24.50;49.50
6986;DHT22;3533;51.246;6.850;2023-09-08T07:54:30;24.50;49.50
6986;DHT22;3533;51.246;6.850;2023-09-08T07:56:55;24.50;49.50
6986;DHT22;3533;51.246;6.850;2023-09-08T07:59:21;24.50;49.40
6986;DHT22;3533;51.246;6.850;2023-09-08T08:01:46;24.50;49.50
6986;DHT22;3533;51.246;6.850;2023-09-08T08:04:12;24.50;49.50
6986;DHT22;3533;51.246;6.850;2023-09-08T08:06:37;24.50;49.50
6986;DHT22;3533;51.246;6.850;2023-09-08T08:09:03;24.50;49.50
6986;DHT22;3533;51.246;6.850;2023-09-08T08:11:29;24.50;49.40
6986;DHT22;3533;51.246;6.850;2023-09-08T08:13:54;24.50;49.50
6986;DHT22;3533;51.246;6.850;2023-09-08T08:16:21;24.50;49.40
6986;DHT22;3533;51.246;6.850;2023-09-08T08:18:48;24.50;49.40
6986;DHT22;3533;51.246;6.850;2023-09-08T08:21:13;24.50;49.40
6986;DHT22;3533;51.246;6.850;2023-09-08T08:23:39;24.50;49.40
6986;DHT22;3533;51.246;6.850;2023-09-08T08:26:06;24.50;49.40
6986;DHT22;3533;51.246;6.850;2023-09-08T08:28:32;24.50;49.40
6986;DHT22;3533;51.246;6.850;2023-09-08T08:30:57;24.50;49.50
6986;DHT22;3533;51.246;6.850;2023-09-08T08:33:23;24.50;49.40
6986;DHT22;3533;51.246;6.850;2023-09-08T08:35:52;24.50;49.40
6986;DHT22;3533;51.246;6.850;2023-09-08T08:38:18;24.50;49.40
6986;DHT22;3533;51.246;6.850;2023-09-08T08:40:43;24.50;49.40
6986;DHT22;3533;51.246;6.850;2023-09-08T08:43:09;24.50;49.40
6986;DHT22;3533;51.246;6.850;2023-09-08T08:45:37;24.50;49.30
6986;DHT22;3533;51.246;6.850;2023-09-08T08:48:04;24.50;49.40
6986;DHT22;3533;51.246;6.850;2023-09-08T08:50:31;24.50;49.30
6986;DHT22;3533;51.246;6.850;2023-09-08T08:52:57;24.50;49.30
6986;DHT22;3533;51.246;6.850;2023-09-08T08:55:25;24.50;49.30
6986;DHT22;3533;51.246;6.850;2023-09-08T08:57:51;24.50;49.20
6986;DHT22;3533;51.246;6.850;2023-09-08T09:00:18;24.50;49.30
6986;DHT22;3533;51.246;6.850;2023-09-08T09:02:44;24.50;49.30
6986;DHT22;3533;51.246;6.850;2023-09-08T09:05:13;24.50;49.30
6986;DHT22;3533;51.246;6.850;2023-09-08T09:07:42;24.50;49.30
6986;DHT22;3533;51.246;6.850;2023-09-08T09:10:08;24.50;49.30
6986;DHT22;3533;51.246;6.850;2023-09-08T09:12:36;24.50;49.30
6986;DHT22;3533;51.246;6.850;2023-09-08T09:15:02;24.50;49.30
6986;DHT22;3533;51.246;6.850;2023-09-08T09:17:30;24.50;49.30
6986;DHT22;3533;51.246;6.850;2023-09-08T09:20:18;24.50;49.30
6986;DHT22;3533;51.246;6.850;2023-09-08T09:22:46;24.60;50.00
6986;DHT22;3533;51.246;6.850;2023-09-08T09:25:26;24.50;49.30
6986;DHT22;3533;51.246;6.850;2023-09-08T09:27:59;24.50;49.20
6986;DHT22;3533;51.246;6.850;2023-09-08T09:30:27;24.50;49.30
6986;DHT22;3533;51.246;6.850;2023-09-08T09:33:03;24.50;49.30
6986;DHT22;3533;51.246;6.850;2023-09-08T09:35:49;24.50;49.20
6986;DHT22;3533;51.246;6.850;2023-09-08T09:38:18;24.50;49.20
6986;DHT22;3533;51.246;6.850;2023-09-08T09:40:48;24.50;49.30
6986;DHT22;3533;51.246;6.850;2023-09-08T09:43:21;24.50;49.30
6986;DHT22;3533;51.246;6.850;2023-09-08T09:45:46;24.50;49.30
6986;DHT22;3533;51.246;6.850;2023-09-08T09:48:12;24.50;49.30
6986;DHT22;3533;51.246;6.850;2023-09-08T09:50:39;24.50;49.30
6986;DHT22;3533;51.246;6.850;2023-09-08T09:53:13;24.50;49.30
6986;DHT22;3533;51.246;6.850;2023-09-08T09:55:43;24.50;49.30
6986;DHT22;3533;51.246;6.850;2023-09-08T09:58:09;24.50;49.30
6986;DHT22;3533;51.246;6.850;2023-09-08T10:00:39;24.50;49.40
6986;DHT22;3533;51.246;6.850;2023-09-08T10:03:13;24.50;49.30
6986;DHT22;3533;51.246;6.850;2023-09-08T10:05:39;24.50;49.30
6986;DHT22;3533;51.246;6.850;2023-09-08T10:08:05;24.50;49.40
6986;DHT22;3533;51.246;6.850;2023-09-08T10:10:32;24.50;49.40
6986;DHT22;3533;51.246;6.850;2023-09-08T10:13:02;24.50;50.10
6986;DHT22;3533;51.246;6.850;2023-09-08T10:15:30;24.60;49.50
6986;DHT22;3533;51.246;6.850;2023-09-08T10:17:56;24.50;49.40
6986;DHT22;3533;51.246;6.850;2023-09-08T10:20:26;24.50;49.40
6986;DHT22;3533;51.246;6.850;2023-09-08T10:22:55;24.60;49.50
6986;DHT22;3533;51.246;6.850;2023-09-08T10:25:24;24.50;49.40
6986;DHT22;3533;51.246;6.850;2023-09-08T10:27:50;24.50;49.40
6986;DHT22;3533;51.246;6.850;2023-09-08T10:30:17;24.50;49.40
6986;DHT22;3533;51.246;6.850;2023-09-08T10:32:43;24.50;49.40
6986;DHT22;3533;51.246;6.850;2023-09-08T10:35:10;24.60;49.50
6986;DHT22;3533;51.246;6.850;2023-09-08T10:37:36;24.60;49.50
6986;DHT22;3533;51.246;6.850;2023-09-08T10:40:24;24.60;49.50
6986;DHT22;3533;51.246;6.850;2023-09-08T10:43:09;24.60;49.50
6986;DHT22;3533;51.246;6.850;2023-09-08T10:45:35;24.60;49.50
6986;DHT22;3533;51.246;6.850;2023-09-08T10:48:01;24.60;49.50
6986;DHT22;3533;51.246;6.850;2023-09-08T10:50:31;24.60;49.50
6986;DHT22;3533;51.246;6.850;2023-09-08T10:53:05;24.60;49.50
6986;DHT22;3533;51.246;6.850;2023-09-08T10:55:40;24.60;49.50
6986;DHT22;3533;51.246;6.850;2023-09-08T10:58:10;24.60;49.50
6986;DHT22;3533;51.246;6.850;2023-09-08T11:00:51;24.60;49.50
6986;DHT22;3533;51.246;6.850;2023-09-08T11:03:47;24.60;49.50
6986;DHT22;3533;51.246;6.850;2023-09-08T11:06:16;24.60;49.60
6986;DHT22;3533;51.246;6.850;2023-09-08T11:08:43;24.60;49.50
6986;DHT22;3533;51.246;6.850;2023-09-08T11:11:13;24.60;49.60
6986;DHT22;3533;51.246;6.850;2023-09-08T11:13:39;24.60;49.60
6986;DHT22;3533;51.246;6.850;2023-09-08T11:16:11;24.60;49.50
6986;DHT22;3533;51.246;6.850;2023-09-08T11:18:36;24.60;49.60
6986;DHT22;3533;51.246;6.850;2023-09-08T11:21:04;24.60;49.50
6986;DHT22;3533;51.246;6.850;2023-09-08T11:23:32;24.60;49.60
6986;DHT22;3533;51.246;6.850;2023-09-08T11:25:59;24.60;49.60
6986;DHT22;3533;51.246;6.850;2023-09-08T11:28:27;24.60;49.60
6986;DHT22;3533;51.246;6.850;2023-09-08T11:30:54;24.60;49.50
6986;DHT22;3533;51.246;6.850;2023-09-08T11:33:20;24.60;49.60
6986;DHT22;3533;51.246;6.850;2023-09-08T11:35:53;24.60;49.60
6986;DHT22;3533;51.246;6.850;2023-09-08T11:38:25;24.60;49.60
6986;DHT22;3533;51.246;6.850;2023-09-08T11:40:56;24.60;49.60
6986;DHT22;3533;51.246;6.850;2023-09-08T11:43:22;24.60;49.60
6986;DHT22;3533;51.246;6.850;2023-09-08T11:45:48;24.60;49.60
6986;DHT22;3533;51.246;6.850;2023-09-08T11:48:14;24.60;49.60
6986;DHT22;3533;51.246;6.850;2023-09-08T11:50:41;24.60;49.60
6986;DHT22;3533;51.246;6.850;2023-09-08T11:53:07;24.60;49.70
6986;DHT22;3533;51.246;6.850;2023-09-08T11:55:33;24.60;49.60
6986;DHT22;3533;51.246;6.850;2023-09-08T11:57:59;24.60;49.60
6986;DHT22;3533;51.246;6.850;2023-09-08T12:00:28;24.60;49.60
6986;DHT22;3533;51.246;6.850;2023-09-08T12:02:54;24.60;49.60
6986;DHT22;3533;51.246;6.850;2023-09-08T12:05:22;24.60;49.60
6986;DHT22;3533;51.246;6.850;2023-09-08T12:07:51;24.60;49.60
6986;DHT22;3533;51.246;6.850;2023-09-08T12:10:17;24.60;49.70
6986;DHT22;3533;51.246;6.850;2023-09-08T12:12:48;24.60;49.60
6986;DHT22;3533;51.246;6.850;2023-09-08T12:15:34;24.60;49.60
6986;DHT22;3533;51.246;6.850;2023-09-08T12:18:05;24.70;49.70
6986;DHT22;3533;51.246;6.850;2023-09-08T12:20:31;24.60;49.60
6986;DHT22;3533;51.246;6.850;2023-09-08T12:23:06;24.70;49.70
6986;DHT22;3533;51.246;6.850;2023-09-08T12:25:44;24.60;49.60
6986;DHT22;3533;51.246;6.850;2023-09-08T12:28:10;24.60;49.60
6986;DHT22;3533;51.246;6.850;2023-09-08T12:30:36;24.70;49.80
6986;DHT22;3533;51.246;6.850;2023-09-08T12:33:02;24.70;49.80
6986;DHT22;3533;51.246;6.850;2023-09-08T12:35:28;24.70;49.70
6986;DHT22;3533;51.246;6.850;2023-09-08T12:38:02;24.60;49.70
6986;DHT22;3533;51.246;6.850;2023-09-08T12:40:29;24.70;49.70
6986;DHT22;3533;51.246;6.850;2023-09-08T12:42:56;24.70;49.80
6986;DHT22;3533;51.246;6.850;2023-09-08T12:45:22;24.70;49.70
6986;DHT22;3533;51.246;6.850;2023-09-08T12:47:50;24.70;49.70
6986;DHT22;3533;51.246;6.850;2023-09-08T12:50:16;24.70;49.80
6986;DHT22;3533;51.246;6.850;2023-09-08T12:52:42;24.70;49.80
6986;DHT22;3533;51.246;6.850;2023-09-08T12:55:08;24.70;49.80
6986;DHT22;3533;51.246;6.850;2023-09-08T12:57:35;24.70;49.80
6986;DHT22;3533;51.246;6.850;2023-09-08T13:00:01;24.70;49.80
6986;DHT22;3533;51.246;6.850;2023-09-08T13:02:26;24.70;49.90
6986;DHT22;3533;51.246;6.850;2023-09-08T13:04:52;24.70;49.80
6986;DHT22;3533;51.246;6.850;2023-09-08T13:07:18;24.70;49.80
6986;DHT22;3533;51.246;6.850;2023-09-08T13:09:44;24.70;49.80
6986;DHT22;3533;51.246;6.850;2023-09-08T13:12:10;24.70;49.80
6986;DHT22;3533;51.246;6.850;2023-09-08T13:14:37;24.70;49.80
6986;DHT22;3533;51.246;6.850;2023-09-08T13:17:03;24.70;49.80
6986;DHT22;3533;51.246;6.850;2023-09-08T13:19:28;24.70;49.90
6986;DHT22;3533;51.246;6.850;2023-09-08T13:21:54;24.70;49.90
6986;DHT22;3533;51.246;6.850;2023-09-08T13:24:20;24.70;49.80
6986;DHT22;3533;51.246;6.850;2023-09-08T13:26:47;24.70;49.80
6986;DHT22;3533;51.246;6.850;2023-09-08T13:29:13;24.70;49.80
6986;DHT22;3533;51.246;6.850;2023-09-08T13:31:38;24.70;49.80
6986;DHT22;3533;51.246;6.850;2023-09-08T13:34:04;24.70;49.80
6986;DHT22;3533;51.246;6.850;2023-09-08T13:36:30;24.70;49.80
6986;DHT22;3533;51.246;6.850;2023-09-08T13:38:55;24.70;49.90
6986;DHT22;3533;51.246;6.850;2023-09-08T13:41:21;24.70;49.80
6986;DHT22;3533;51.246;6.850;2023-09-08T13:43:46;24.70;49.80
6986;DHT22;3533;51.246;6.850;2023-09-08T13:46:12;24.70;49.90
6986;DHT22;3533;51.246;6.850;2023-09-08T13:48:37;24.70;49.80
6986;DHT22;3533;51.246;6.850;2023-09-08T13:51:03;24.70;50.60
6986;DHT22;3533;51.246;6.850;2023-09-08T13:53:29;24.70;49.80
6986;DHT22;3533;51.246;6.850;2023-09-08T13:55:58;24.70;49.90
6986;DHT22;3533;51.246;6.850;2023-09-08T13:58:24;24.70;49.80
6986;DHT22;3533;51.246;6.850;2023-09-08T14:00:50;24.70;49.90
6986;DHT22;3533;51.246;6.850;2023-09-08T14:03:17;24.70;49.90
6986;DHT22;3533;51.246;6.850;2023-09-08T14:05:43;24.70;49.90
6986;DHT22;3533;51.246;6.850;2023-09-08T14:08:09;24.70;50.60
6986;DHT22;3533;51.246;6.850;2023-09-08T14:10:35;24.70;49.90
6986;DHT22;3533;51.246;6.850;2023-09-08T14:13:00;24.70;49.90
6986;DHT22;3533;51.246;6.850;2023-09-08T14:15:26;24.70;49.90
6986;DHT22;3533;51.246;6.850;2023-09-08T14:17:52;24.70;49.90
6986;DHT22;3533;51.246;6.850;2023-09-08T14:20:18;24.70;49.90
6986;DHT22;3533;51.246;6.850;2023-09-08T14:22:44;24.70;49.90
6986;DHT22;3533;51.246;6.850;2023-09-08T14:25:09;24.70;49.90
6986;DHT22;3533;51.246;6.850;2023-09-08T14:27:35;24.70;49.90
6986;DHT22;3533;51.246;6.850;2023-09-08T14:30:03;24.70;49.90
6986;DHT22;3533;51.246;6.850;2023-09-08T14:32:29;24.70;49.90
6986;DHT22;3533;51.246;6.850;2023-09-08T14:34:55;24.70;49.90
6986;DHT22;3533;51.246;6.850;2023-09-08T14:37:21;24.70;49.90
6986;DHT22;3533;51.246;6.850;2023-09-08T14:39:47;24.70;49.90
6986;DHT22;3533;51.246;6.850;2023-09-08T14:42:12;24.70;50.00
6986;DHT22;3533;51.246;6.850;2023-09-08T14:44:39;24.70;49.90
6986;DHT22;3533;51.246;6.850;2023-09-08T14:47:04;24.70;49.90
6986;DHT22;3533;51.246;6.850;2023-09-08T14:49:30;24.70;49.90
6986;DHT22;3533;51.246;6.850;2023-09-08T14:51:55;24.70;49.90
6986;DHT22;3533;51.246;6.850;2023-09-08T14:54:21;24.70;50.00
6986;DHT22;3533;51.246;6.850;2023-09-08T14:56:47;24.70;49.90
6986;DHT22;3533;51.246;6.850;2023-09-08T14:59:12;24.60;49.80
6986;DHT22;3533;51.246;6.850;2023-09-08T15:01:38;24.70;49.90
6986;DHT22;3533;51.246;6.850;2023-09-08T15:04:06;24.70;49.90
6986;DHT22;3533;51.246;6.850;2023-09-08T15:06:31;24.70;49.90
6986;DHT22;3533;51.246;6.850;2023-09-08T15:08:57;24.60;49.80
6986;DHT22;3533;51.246;6.850;2023-09-08T15:11:22;24.60;49.80
6986;DHT22;3533;51.246;6.850;2023-09-08T15:13:48;24.70;50.00
6986;DHT22;3533;51.246;6.850;2023-09-08T15:16:13;24.60;49.80
6986;DHT22;3533;51.246;6.850;2023-09-08T15:18:40;24.60;49.80
6986;DHT22;3533;51.246;6.850;2023-09-08T15:21:05;24.60;49.90
6986;DHT22;3533;51.246;6.850;2023-09-08T15:23:31;24.60;49.90
6986;DHT22;3533;51.246;6.850;2023-09-08T15:25:57;24.60;49.90
6986;DHT22;3533;51.246;6.850;2023-09-08T15:28:24;24.60;49.90
6986;DHT22;3533;51.246;6.850;2023-09-08T15:30:51;24.60;49.90
6986;DHT22;3533;51.246;6.850;2023-09-08T15:33:17;24.60;50.00
6986;DHT22;3533;51.246;6.850;2023-09-08T15:35:43;24.70;50.00
6986;DHT22;3533;51.246;6.850;2023-09-08T15:38:09;24.60;49.90
6986;DHT22;3533;51.246;6.850;2023-09-08T15:40:37;24.60;49.90
6986;DHT22;3533;51.246;6.850;2023-09-08T15:43:04;24.60;50.00
6986;DHT22;3533;51.246;6.850;2023-09-08T15:45:29;24.60;50.00
6986;DHT22;3533;51.246;6.850;2023-09-08T15:47:55;24.60;49.90
6986;DHT22;3533;51.246;6.850;2023-09-08T15:50:20;24.70;50.00
6986;DHT22;3533;51.246;6.850;2023-09-08T15:52:46;24.70;50.00
6986;DHT22;3533;51.246;6.850;2023-09-08T15:55:11;24.70;49.90
6986;DHT22;3533;51.246;6.850;2023-09-08T15:57:37;24.70;49.90
6986;DHT22;3533;51.246;6.850;2023-09-08T16:00:03;24.70;49.90
6986;DHT22;3533;51.246;6.850;2023-09-08T16:02:29;24.70;49.90